Time;durP1;ratioP1;P1;durP2;ratioP2;P2;SDS_P1;SDS_P2;PMS_P1;PMS_P2;Temp;Humidity;BMP_temperature;BMP_pressure;BME280_temperature;BME280_humidity;BME280_pressure;Samples;Min_cycle;Max_cycle;Signal;HPM_P1;HPM_P2
2023/08/28 00:01:33;;;;;;;5.10;2.10;;;;;;;;;;5070275;28;20040;-64
2023/08/28 00:03:59;;;;;;;4.30;2.10;;;;;;;;;;5072414;28;20041;-64
2023/08/28 00:06:25;;;;;;;5.43;2.75;;;;;;;;;;5071914;28;20064;-62
2023/08/28 00:08:51;;;;;;;7.13;2.50;;;;;;;;;;5072571;28;20040;-64
2023/08/28 00:11:18;;;;;;;6.97;2.80;;;;;;;;;;5068678;28;20086;-64
2023/08/28 00:13:44;;;;;;;5.40;2.58;;;;;;;;;;5072688;28;20040;-66
2023/08/28 00:16:10;;;;;;;5.18;2.40;;;;;;;;;;5053762;28;20039;-66
2023/08/28 00:18:36;;;;;;;4.15;2.60;;;;;;;;;;5072412;28;20044;-66
2023/08/28 00:21:03;;;;;;;6.22;2.50;;;;;;;;;;5054293;28;20460;-63
2023/08/28 00:23:32;;;;;;;9.07;2.40;;;;;;;;;;5071953;28;20044;-65
2023/08/28 00:25:58;;;;;;;9.52;2.72;;;;;;;;;;5071739;28;20063;-65
2023/08/28 00:28:24;;;;;;;6.00;3.65;;;;;;;;;;5053590;28;20049;-64
2023/08/28 00:30:50;;;;;;;3.72;2.00;;;;;;;;;;5072097;28;20051;-65
2023/08/28 00:33:16;;;;;;;7.32;2.88;;;;;;;;;;5072075;28;20067;-65
2023/08/28 00:35:42;;;;;;;2.80;2.10;;;;;;;;;;5072352;28;20040;-65
2023/08/28 00:38:09;;;;;;;8.00;2.63;;;;;;;;;;5071247;28;20053;-64
2023/08/28 00:40:39;;;;;;;6.28;2.63;;;;;;;;;;5042601;28;20052;-64
2023/08/28 00:43:05;;;;;;;3.90;2.30;;;;;;;;;;5056347;28;20052;-64
2023/08/28 00:45:31;;;;;;;8.02;2.53;;;;;;;;;;5072341;28;20049;-64
2023/08/28 00:47:57;;;;;;;6.32;2.72;;;;;;;;;;5072340;28;20056;-65
2023/08/28 00:50:24;;;;;;;7.10;3.20;;;;;;;;;;5051471;28;20044;-64
2023/08/28 00:52:50;;;;;;;13.32;6.85;;;;;;;;;;5071614;28;20056;-64
2023/08/28 00:55:16;;;;;;;11.73;7.50;;;;;;;;;;5067780;28;20488;-64
2023/08/28 00:57:42;;;;;;;12.02;7.43;;;;;;;;;;5066658;28;20135;-65
2023/08/28 01:00:10;;;;;;;9.88;6.95;;;;;;;;;;5069585;28;20081;-64
2023/08/28 01:02:37;;;;;;;10.43;6.50;;;;;;;;;;5072116;28;20052;-64
2023/08/28 01:05:04;;;;;;;9.27;5.47;;;;;;;;;;5071700;28;20162;-64
2023/08/28 01:07:44;;;;;;;8.80;4.57;;;;;;;;;;5071970;28;20069;-64
2023/08/28 01:10:13;;;;;;;8.15;4.65;;;;;;;;;;5071766;28;20064;-64
2023/08/28 01:12:45;;;;;;;6.03;4.68;;;;;;;;;;5070609;28;20044;-63
2023/08/28 01:15:14;;;;;;;6.20;4.03;;;;;;;;;;5070515;28;20553;-64
2023/08/28 01:17:41;;;;;;;5.80;4.60;;;;;;;;;;5071473;28;20052;-63
2023/08/28 01:20:13;;;;;;;11.95;5.40;;;;;;;;;;5069351;28;20047;-63
2023/08/28 01:22:42;;;;;;;9.07;4.35;;;;;;;;;;5037132;28;20052;-63
2023/08/28 01:25:10;;;;;;;6.60;5.25;;;;;;;;;;5071380;28;20044;-64
2023/08/28 01:27:39;;;;;;;12.25;7.22;;;;;;;;;;5071539;28;20045;-63
2023/08/28 01:30:06;;;;;;;10.00;7.35;;;;;;;;;;5070494;28;20063;-64
2023/08/28 01:32:32;;;;;;;15.20;8.13;;;;;;;;;;5071945;28;20041;-63
2023/08/28 01:34:58;;;;;;;12.68;8.45;;;;;;;;;;5053295;28;20097;-64
2023/08/28 01:37:26;;;;;;;14.43;7.88;;;;;;;;;;5071288;28;20515;-63
2023/08/28 01:39:52;;;;;;;17.08;8.10;;;;;;;;;;5071865;28;20084;-64
2023/08/28 01:42:19;;;;;;;13.93;7.15;;;;;;;;;;5052793;28;20037;-63
2023/08/28 01:44:45;;;;;;;14.75;8.35;;;;;;;;;;5053210;28;20044;-62
2023/08/28 01:47:13;;;;;;;9.57;6.93;;;;;;;;;;5071136;28;20048;-63
2023/08/28 01:49:39;;;;;;;15.07;9.23;;;;;;;;;;5069151;28;20096;-63
2023/08/28 01:52:06;;;;;;;11.57;6.82;;;;;;;;;;5067636;28;20502;-64
2023/08/28 01:54:32;;;;;;;10.85;4.75;;;;;;;;;;5070866;28;20050;-63
2023/08/28 01:56:59;;;;;;;8.82;3.45;;;;;;;;;;5053314;28;20131;-63
2023/08/28 01:59:25;;;;;;;5.20;3.25;;;;;;;;;;5069750;28;20044;-63
2023/08/28 02:01:51;;;;;;;9.63;4.15;;;;;;;;;;5070016;28;20040;-63
2023/08/28 02:04:17;;;;;;;6.57;3.22;;;;;;;;;;5071082;28;20044;-64
2023/08/28 02:06:44;;;;;;;7.47;3.72;;;;;;;;;;5071067;28;20105;-62
2023/08/28 02:09:11;;;;;;;11.55;4.00;;;;;;;;;;5053119;28;20048;-63
2023/08/28 02:11:37;;;;;;;6.32;3.90;;;;;;;;;;5070442;28;20445;-63
2023/08/28 02:14:03;;;;;;;6.32;3.63;;;;;;;;;;5052558;28;20131;-62
2023/08/28 02:16:29;;;;;;;10.63;3.97;;;;;;;;;;5051988;28;20040;-63
2023/08/28 02:18:55;;;;;;;6.47;4.00;;;;;;;;;;5071294;28;20056;-63
2023/08/28 02:21:21;;;;;;;6.30;3.72;;;;;;;;;;5070281;28;20105;-63
2023/08/28 02:23:47;;;;;;;6.72;4.20;;;;;;;;;;5069589;28;20037;-62
2023/08/28 02:26:13;;;;;;;4.43;3.72;;;;;;;;;;5073539;28;20385;-62
2023/08/28 02:28:39;;;;;;;6.22;3.83;;;;;;;;;;5074702;28;20055;-63
2023/08/28 02:31:05;;;;;;;5.88;3.78;;;;;;;;;;5074277;28;20666;-63
2023/08/28 02:33:31;;;;;;;6.03;3.90;;;;;;;;;;5074305;28;20080;-62
2023/08/28 02:36:00;;;;;;;6.97;3.75;;;;;;;;;;5073927;28;20044;-63
2023/08/28 02:38:26;;;;;;;8.07;3.95;;;;;;;;;;5073380;28;20416;-64
2023/08/28 02:40:52;;;;;;;7.10;3.70;;;;;;;;;;5053074;28;20052;-63
2023/08/28 02:43:18;;;;;;;6.00;3.15;;;;;;;;;;5035976;28;20041;-63
2023/08/28 02:45:44;;;;;;;7.18;3.70;;;;;;;;;;5054277;28;20477;-63
2023/08/28 02:48:10;;;;;;;7.68;3.65;;;;;;;;;;5054236;28;20052;-63
2023/08/28 02:50:36;;;;;;;18.17;4.55;;;;;;;;;;5053119;28;20402;-63
2023/08/28 02:53:03;;;;;;;5.32;3.30;;;;;;;;;;5073243;28;20044;-61
2023/08/28 02:55:39;;;;;;;5.85;2.80;;;;;;;;;;5073553;28;20045;-62
2023/08/28 02:58:05;;;;;;;5.18;2.60;;;;;;;;;;5072332;28;20115;-63
2023/08/28 03:00:33;;;;;;;4.65;3.15;;;;;;;;;;5074296;28;20052;-63
2023/08/28 03:03:00;;;;;;;7.75;3.53;;;;;;;;;;5056263;28;20048;-63
2023/08/28 03:05:26;;;;;;;4.55;3.17;;;;;;;;;;5073030;28;20049;-63
2023/08/28 03:07:52;;;;;;;6.40;3.13;;;;;;;;;;5055149;28;20446;-62
2023/08/28 03:10:18;;;;;;;4.18;3.20;;;;;;;;;;5055388;28;20507;-63
2023/08/28 03:12:44;;;;;;;5.80;3.35;;;;;;;;;;5074183;28;20044;-63
2023/08/28 03:15:11;;;;;;;5.50;3.25;;;;;;;;;;5073648;28;20040;-63
2023/08/28 03:17:37;;;;;;;8.32;3.15;;;;;;;;;;5073763;28;20504;-62
2023/08/28 03:20:03;;;;;;;14.77;3.88;;;;;;;;;;5072407;28;20048;-62
2023/08/28 03:22:29;;;;;;;6.28;4.40;;;;;;;;;;5070088;28;20111;-62
2023/08/28 03:24:55;;;;;;;4.18;2.85;;;;;;;;;;5068798;28;20098;-62
2023/08/28 03:27:22;;;;;;;6.53;3.67;;;;;;;;;;5071859;28;20109;-62
2023/08/28 03:29:48;;;;;;;6.60;3.15;;;;;;;;;;5073085;28;20040;-62
2023/08/28 03:32:14;;;;;;;5.35;3.60;;;;;;;;;;5055185;28;20052;-62
2023/08/28 03:34:40;;;;;;;8.98;4.10;;;;;;;;;;5071990;28;20075;-62
2023/08/28 03:37:06;;;;;;;8.50;4.18;;;;;;;;;;5071705;28;20052;-62
2023/08/28 03:39:32;;;;;;;9.75;4.05;;;;;;;;;;5073365;28;20098;-62
2023/08/28 03:41:58;;;;;;;6.78;4.25;;;;;;;;;;5073616;28;20049;-61
2023/08/28 03:44:24;;;;;;;5.97;3.53;;;;;;;;;;5072323;28;20045;-61
2023/08/28 03:46:51;;;;;;;7.20;3.78;;;;;;;;;;5071507;28;20109;-62
2023/08/28 03:49:17;;;;;;;6.47;3.88;;;;;;;;;;5070924;28;20080;-62
2023/08/28 03:51:44;;;;;;;7.93;4.25;;;;;;;;;;5071701;28;20127;-62
2023/08/28 03:54:14;;;;;;;11.07;4.80;;;;;;;;;;5053548;28;20227;-62
2023/08/28 03:56:40;;;;;;;7.50;4.22;;;;;;;;;;5070717;28;20048;-62
2023/08/28 03:59:06;;;;;;;6.85;4.22;;;;;;;;;;5072918;28;20052;-62
2023/08/28 04:01:32;;;;;;;6.43;5.15;;;;;;;;;;5072387;28;20457;-62
2023/08/28 04:03:58;;;;;;;8.23;5.05;;;;;;;;;;5069071;28;20089;-62
2023/08/28 04:06:24;;;;;;;8.95;4.38;;;;;;;;;;5071467;28;20486;-62
2023/08/28 04:08:50;;;;;;;8.32;4.22;;;;;;;;;;5072719;28;20113;-63
2023/08/28 04:11:16;;;;;;;6.18;4.22;;;;;;;;;;5055127;28;20786;-62
2023/08/28 04:13:42;;;;;;;6.30;4.05;;;;;;;;;;5055048;28;20415;-62
2023/08/28 04:16:08;;;;;;;6.60;3.85;;;;;;;;;;5072412;28;20480;-62
2023/08/28 04:18:34;;;;;;;5.60;3.78;;;;;;;;;;5072022;28;20047;-62
2023/08/28 04:21:03;;;;;;;5.68;4.35;;;;;;;;;;5071430;28;20048;-61
2023/08/28 04:23:29;;;;;;;8.98;4.60;;;;;;;;;;5072390;28;20720;-62
2023/08/28 04:25:55;;;;;;;6.55;4.75;;;;;;;;;;5071029;28;20123;-62
2023/08/28 04:28:22;;;;;;;6.53;4.55;;;;;;;;;;5071134;28;20041;-62
2023/08/28 04:30:48;;;;;;;5.70;4.30;;;;;;;;;;5072363;28;20049;-62
2023/08/28 04:33:14;;;;;;;5.88;4.47;;;;;;;;;;5071995;28;20102;-62
2023/08/28 04:35:40;;;;;;;9.93;4.63;;;;;;;;;;5071323;28;20408;-62
2023/08/28 04:38:06;;;;;;;5.50;4.03;;;;;;;;;;5071859;28;20119;-62
2023/08/28 04:40:32;;;;;;;5.47;4.25;;;;;;;;;;5057208;28;20145;-62
2023/08/28 04:42:58;;;;;;;5.03;3.83;;;;;;;;;;5052356;28;20052;-62
2023/08/28 04:45:24;;;;;;;8.32;4.82;;;;;;;;;;5052143;28;20068;-62
2023/08/28 04:47:50;;;;;;;6.13;3.85;;;;;;;;;;5059965;28;20072;-61
2023/08/28 04:50:16;;;;;;;7.13;3.97;;;;;;;;;;5066920;28;20049;-62
2023/08/28 04:52:43;;;;;;;6.85;4.65;;;;;;;;;;5070949;28;20041;-62
2023/08/28 04:55:09;;;;;;;7.00;4.53;;;;;;;;;;5071089;28;20450;-62
2023/08/28 04:57:35;;;;;;;7.00;4.53;;;;;;;;;;5072148;28;20464;-62
2023/08/28 05:00:01;;;;;;;5.82;4.45;;;;;;;;;;5072194;28;20040;-62
2023/08/28 05:02:27;;;;;;;9.07;5.05;;;;;;;;;;5071253;28;20044;-62
2023/08/28 05:04:53;;;;;;;7.20;4.80;;;;;;;;;;5070321;28;20041;-62
2023/08/28 05:07:19;;;;;;;6.50;4.82;;;;;;;;;;5070893;28;20053;-62
2023/08/28 05:09:45;;;;;;;5.35;4.32;;;;;;;;;;5052542;28;20105;-62
2023/08/28 05:12:11;;;;;;;8.32;4.85;;;;;;;;;;5037831;28;20056;-64
2023/08/28 05:14:37;;;;;;;7.88;4.68;;;;;;;;;;5071839;28;20048;-61
2023/08/28 05:17:05;;;;;;;6.18;3.88;;;;;;;;;;5071384;28;20063;-61
2023/08/28 05:19:31;;;;;;;6.88;4.35;;;;;;;;;;5067190;28;20118;-61
2023/08/28 05:21:57;;;;;;;6.45;4.50;;;;;;;;;;5068381;28;20067;-61
2023/08/28 05:24:23;;;;;;;6.68;4.53;;;;;;;;;;5069522;28;20488;-62
2023/08/28 05:26:49;;;;;;;6.40;3.92;;;;;;;;;;5053422;28;20080;-61
2023/08/28 05:29:15;;;;;;;6.97;4.30;;;;;;;;;;5053329;28;20102;-61
2023/08/28 05:31:41;;;;;;;6.25;4.40;;;;;;;;;;5071466;28;20040;-61
2023/08/28 05:34:08;;;;;;;7.30;4.15;;;;;;;;;;5067711;28;20036;-61
2023/08/28 05:36:34;;;;;;;9.65;4.55;;;;;;;;;;5033751;28;20496;-61
2023/08/28 05:39:00;;;;;;;7.32;5.03;;;;;;;;;;5058284;28;20052;-61
2023/08/28 05:41:26;;;;;;;7.57;4.60;;;;;;;;;;5049185;28;20045;-61
2023/08/28 05:43:52;;;;;;;7.65;4.68;;;;;;;;;;5070083;28;20123;-61
2023/08/28 05:46:18;;;;;;;8.40;5.38;;;;;;;;;;5070887;28;20470;-59
2023/08/28 05:48:44;;;;;;;6.88;4.82;;;;;;;;;;5069441;28;20084;-58
2023/08/28 05:51:11;;;;;;;8.57;4.85;;;;;;;;;;5070485;28;20080;-58
2023/08/28 05:53:38;;;;;;;7.78;5.15;;;;;;;;;;5069312;28;20048;-59
2023/08/28 05:56:04;;;;;;;10.40;5.25;;;;;;;;;;5064586;28;20080;-59
2023/08/28 05:58:30;;;;;;;9.20;5.00;;;;;;;;;;5069330;28;20116;-58
2023/08/28 06:00:56;;;;;;;10.73;4.82;;;;;;;;;;5053140;28;20044;-58
2023/08/28 06:03:22;;;;;;;7.47;4.40;;;;;;;;;;5074277;28;20055;-58
2023/08/28 06:05:48;;;;;;;8.88;4.88;;;;;;;;;;5074570;28;20060;-58
2023/08/28 06:08:16;;;;;;;6.75;4.40;;;;;;;;;;5056294;28;20052;-57
2023/08/28 06:10:42;;;;;;;6.72;4.82;;;;;;;;;;5065712;28;20052;-58
2023/08/28 06:13:09;;;;;;;5.47;4.20;;;;;;;;;;5020609;28;20087;-58
2023/08/28 06:15:35;;;;;;;9.05;5.88;;;;;;;;;;5071197;28;20052;-58
2023/08/28 06:18:01;;;;;;;9.80;6.30;;;;;;;;;;5054501;28;20060;-58
2023/08/28 06:20:27;;;;;;;10.75;5.70;;;;;;;;;;5062909;28;20156;-57
2023/08/28 06:22:53;;;;;;;8.27;5.38;;;;;;;;;;5049459;28;20072;-58
2023/08/28 06:25:19;;;;;;;9.52;6.40;;;;;;;;;;5052131;28;20519;-58
2023/08/28 06:27:45;;;;;;;8.05;5.22;;;;;;;;;;5071790;28;20055;-58
2023/08/28 06:30:11;;;;;;;9.52;5.13;;;;;;;;;;5055737;28;20056;-58
2023/08/28 06:32:38;;;;;;;8.27;5.00;;;;;;;;;;5055534;28;20544;-58
2023/08/28 06:35:04;;;;;;;7.28;4.75;;;;;;;;;;5054283;28;20040;-58
2023/08/28 06:37:30;;;;;;;6.40;4.97;;;;;;;;;;5036468;28;20041;-58
2023/08/28 06:39:56;;;;;;;5.72;4.80;;;;;;;;;;5073358;28;20556;-58
2023/08/28 06:42:22;;;;;;;7.50;4.47;;;;;;;;;;5073280;28;20459;-58
2023/08/28 06:44:48;;;;;;;5.95;3.83;;;;;;;;;;5054873;28;20737;-58
2023/08/28 06:47:14;;;;;;;5.55;3.53;;;;;;;;;;5072241;28;20040;-58
2023/08/28 06:49:41;;;;;;;7.28;3.30;;;;;;;;;;5034948;28;20049;-58
2023/08/28 06:52:08;;;;;;;8.02;3.65;;;;;;;;;;5072129;28;20094;-58
2023/08/28 06:54:34;;;;;;;4.03;2.55;;;;;;;;;;5055063;28;20064;-60
2023/08/28 06:57:00;;;;;;;4.25;2.78;;;;;;;;;;5035744;28;20052;-59
2023/08/28 06:59:27;;;;;;;6.25;2.30;;;;;;;;;;5070996;28;20094;-58
2023/08/28 07:01:53;;;;;;;3.67;2.88;;;;;;;;;;5049223;28;20603;-59
2023/08/28 07:04:19;;;;;;;4.43;2.28;;;;;;;;;;5047559;28;20109;-59
2023/08/28 07:06:45;;;;;;;3.95;2.20;;;;;;;;;;5062642;28;20092;-59
2023/08/28 07:09:11;;;;;;;7.35;2.30;;;;;;;;;;5063704;28;20496;-62
2023/08/28 07:11:37;;;;;;;4.90;2.38;;;17.50;99.90;;;;;;5069755;28;20487;-62
2023/08/28 07:14:04;;;;;;;5.25;2.40;;;;;;;;;;5058668;28;20068;-63
2023/08/28 07:16:30;;;;;;;5.95;2.50;;;;;;;;;;5070877;28;20895;-64
2023/08/28 07:18:55;;;;;;;6.68;2.55;;;17.80;99.90;;;;;;5061768;28;20069;-63
2023/08/28 07:21:22;;;;;;;6.10;2.80;;;;;;;;;;5070008;28;20072;-64
2023/08/28 07:23:50;;;;;;;7.28;2.60;;;;;;;;;;5072849;28;20044;-63
2023/08/28 07:26:16;;;;;;;5.38;3.10;;;17.80;99.90;;;;;;5071731;28;20076;-62
2023/08/28 07:28:42;;;;;;;5.18;2.70;;;;;;;;;;5071288;28;20115;-63
2023/08/28 07:31:10;;;;;;;5.30;2.05;;;;;;;;;;5073135;28;20135;-62
2023/08/28 07:33:36;;;;;;;3.55;2.28;;;;;;;;;;5073622;28;20412;-67
2023/08/28 07:36:03;;;;;;;7.00;2.10;;;;;;;;;;5067878;28;20129;-65
2023/08/28 07:38:29;;;;;;;2.28;1.40;;;18.60;99.90;;;;;;5066720;28;20049;-65
2023/08/28 07:40:55;;;;;;;4.72;1.70;;;;;;;;;;5046499;28;20060;-64
2023/08/28 07:43:21;;;;;;;2.92;1.40;;;;;;;;;;5030413;28;20055;-65
2023/08/28 07:45:47;;;;;;;6.18;1.60;;;;;;;;;;5064876;28;20501;-64
2023/08/28 07:48:13;;;;;;;4.90;1.90;;;;;;;;;;5062596;28;20044;-65
2023/08/28 07:50:40;;;;;;;4.03;1.60;;;19.40;99.90;;;;;;5064676;28;20049;-64
2023/08/28 07:53:06;;;;;;;2.67;0.98;;;;;;;;;;5063946;28;20037;-65
2023/08/28 07:55:32;;;;;;;2.28;0.88;;;;;;;;;;5065250;28;20045;-64
2023/08/28 07:57:58;;;;;;;2.72;0.75;;;;;;;;;;5039966;28;20048;-65
2023/08/28 08:00:24;;;;;;;3.90;0.90;;;;;;;;;;5068308;28;20041;-64
2023/08/28 08:02:53;;;;;;;3.97;1.17;;;;;;;;;;5059161;28;20104;-65
2023/08/28 08:05:19;;;;;;;8.30;1.00;;;19.60;99.90;;;;;;5067458;28;20048;-64
2023/08/28 08:07:45;;;;;;;3.55;0.80;;;;;;;;;;5051224;28;20063;-65
2023/08/28 08:10:13;;;;;;;2.25;0.60;;;19.80;99.90;;;;;;5069380;28;20075;-65
2023/08/28 08:12:39;;;;;;;2.40;0.68;;;;;;;;;;5071187;28;20040;-66
2023/08/28 08:15:09;;;;;;;1.83;0.70;;;;;;;;;;5058826;28;20053;-65
2023/08/28 08:17:36;;;;;;;2.40;0.80;;;;;;;;;;5068933;28;20079;-65
2023/08/28 08:20:03;;;;;;;4.95;1.10;;;;;;;;;;5053960;28;20557;-65
2023/08/28 08:22:29;;;;;;;3.50;1.10;;;;;;;;;;5048843;28;20489;-65
2023/08/28 08:24:55;;;;;;;2.47;0.80;;;19.20;99.90;;;;;;5071398;28;20062;-65
2023/08/28 08:27:21;;;;;;;2.08;0.70;;;;;;;;;;5068754;28;20115;-66
2023/08/28 08:29:48;;;;;;;4.50;1.05;;;19.80;99.90;;;;;;5072252;28;20550;-66
2023/08/28 08:32:14;;;;;;;1.60;0.70;;;;;;;;;;5071488;28;20040;-66
2023/08/28 08:34:40;;;;;;;3.10;1.52;;;20.10;99.90;;;;;;5051739;28;20523;-65
2023/08/28 08:37:06;;;;;;;3.58;0.75;;;20.40;99.90;;;;;;5071971;28;20079;-65
2023/08/28 08:39:32;;;;;;;3.55;0.70;;;;;;;;;;5071883;28;20044;-65
2023/08/28 08:41:58;;;;;;;4.40;0.80;;;;;;;;;;5071878;28;20048;-66
2023/08/28 08:44:24;;;;;;;5.10;0.85;;;;;;;;;;5070484;28;20085;-65
2023/08/28 08:46:50;;;;;;;2.13;0.80;;;20.30;99.90;;;;;;5069080;28;20119;-65
2023/08/28 08:49:24;;;;;;;2.83;1.10;;;20.50;99.90;;;;;;5057886;28;20091;-65
2023/08/28 08:51:51;;;;;;;3.83;0.80;;;20.90;99.90;;;;;;5070817;28;20040;-66
2023/08/28 08:54:24;;;;;;;2.45;0.77;;;20.70;99.90;;;;;;5071570;28;20396;-66
2023/08/28 08:57:00;;;;;;;2.78;0.70;;;20.80;99.90;;;;;;5054235;28;20098;-65
2023/08/28 08:59:26;;;;;;;7.28;0.88;;;20.60;99.90;;;;;;5053759;28;20087;-65
2023/08/28 09:01:53;;;;;;;3.38;0.75;;;20.70;99.90;;;;;;5053728;28;20044;-65
2023/08/28 09:04:19;;;;;;;2.72;0.93;;;20.70;99.90;;;;;;5069951;28;20080;-65
2023/08/28 09:06:48;;;;;;;2.85;0.82;;;21.00;99.90;;;;;;5053169;28;20060;-64
2023/08/28 09:09:15;;;;;;;3.53;0.95;;;20.80;99.90;;;;;;5070710;28;20500;-63
2023/08/28 09:11:45;;;;;;;2.20;0.70;;;21.10;99.90;;;;;;5070950;28;20408;-65
2023/08/28 09:14:11;;;;;;;3.33;0.65;;;21.20;99.90;;;;;;5053606;28;20055;-65
2023/08/28 09:16:37;;;;;;;2.72;0.80;;;21.60;99.90;;;;;;5053881;28;20124;-65
2023/08/28 09:19:03;;;;;;;1.85;0.80;;;;;;;;;;5071003;28;20123;-65
2023/08/28 09:21:35;;;;;;;4.45;0.90;;;22.00;99.90;;;;;;5071811;28;20040;-63
2023/08/28 09:24:01;;;;;;;2.72;0.60;;;22.00;99.90;;;;;;5071804;28;20055;-62
2023/08/28 09:26:27;;;;;;;3.03;0.60;;;;;;;;;;5053554;28;20048;-63
2023/08/28 09:29:00;;;;;;;1.95;0.60;;;21.50;99.90;;;;;;5071349;28;20127;-64
2023/08/28 09:31:34;;;;;;;4.55;1.20;;;21.70;99.90;;;;;;5071243;28;20567;-64
2023/08/28 09:34:01;;;;;;;3.45;0.70;;;22.10;99.90;;;;;;5053780;28;20069;-64
2023/08/28 09:36:27;;;;;;;3.38;0.98;;;22.20;99.90;;;;;;5056765;28;20062;-64
2023/08/28 09:38:59;;;;;;;4.78;1.02;;;22.50;99.90;;;;;;5052858;28;20055;-63
2023/08/28 09:41:46;;;;;;;2.15;0.80;;;21.80;99.90;;;;;;5048565;28;20048;-63
2023/08/28 09:44:14;;;;;;;2.33;0.80;;;20.80;99.90;;;;;;5075210;28;20041;-62
2023/08/28 09:46:42;;;;;;;1.83;0.80;;;;;;;;;;5057855;28;20044;-63
2023/08/28 09:49:09;;;;;;;1.85;0.68;;;;;;;;;;5036608;28;20048;-62
2023/08/28 09:51:42;;;;;;;1.55;0.68;;;;;;;;;;5025702;28;20131;-62
2023/08/28 09:54:12;;;;;;;3.40;0.90;;;;;;;;;;5031687;28;20040;-62
2023/08/28 09:56:39;;;;;;;2.88;0.82;;;;;;;;;;5075239;28;20052;-62
2023/08/28 09:59:06;;;;;;;1.77;0.80;;;;;;;;;;5056462;28;20060;-62
2023/08/28 10:01:33;;;;;;;2.20;0.65;;;;;;;;;;5020925;28;20049;-62
2023/08/28 10:04:01;;;;;;;3.60;0.88;;;;;;;;;;5050856;28;20511;-62
2023/08/28 10:06:28;;;;;;;2.05;0.80;;;;;;;;;;5056760;28;20063;-62
2023/08/28 10:08:58;;;;;;;1.77;0.90;;;;;;;;;;5073290;28;20099;-62
2023/08/28 10:11:25;;;;;;;2.17;0.90;;;;;;;;;;5050069;28;20045;-62
2023/08/28 10:13:53;;;;;;;3.53;1.23;;;;;;;;;;5039820;28;20509;-62
2023/08/28 10:16:22;;;;;;;3.50;0.88;;;;;;;;;;5057027;28;20048;-62
2023/08/28 10:18:51;;;;;;;1.85;0.80;;;;;;;;;;5039997;28;20091;-62
2023/08/28 10:21:17;;;;;;;4.25;1.10;;;;;;;;;;5056246;28;20097;-62
2023/08/28 10:23:45;;;;;;;1.83;0.80;;;;;;;;;;5074272;28;20048;-62
2023/08/28 10:26:13;;;;;;;1.67;0.70;;;;;;;;;;5056241;28;20127;-62
2023/08/28 10:28:39;;;;;;;2.53;0.70;;;;;;;;;;5039761;28;20099;-62
2023/08/28 10:31:07;;;;;;;2.97;0.90;;;;;;;;;;5038865;28;20083;-62
2023/08/28 10:33:34;;;;;;;5.00;0.95;;;;;;;;;;5056888;28;20071;-62
2023/08/28 10:36:00;;;;;;;3.10;0.90;;;;;;;;;;5073189;28;20090;-62
2023/08/28 10:38:26;;;;;;;2.80;0.82;;;;;;;;;;5072226;28;20143;-62
2023/08/28 10:40:55;;;;;;;1.60;0.73;;;;;;;;;;5054217;28;20040;-62
2023/08/28 10:43:22;;;;;;;3.38;0.90;;;;;;;;;;5039731;28;20060;-62
2023/08/28 10:45:49;;;;;;;2.47;0.90;;;;;;;;;;5055531;28;20037;-63
2023/08/28 10:48:18;;;;;;;2.33;0.73;;;;;;;;;;5030873;28;20091;-62
2023/08/28 10:50:45;;;;;;;5.65;1.00;;;;;;;;;;5070259;28;20382;-62
2023/08/28 10:53:14;;;;;;;1.52;0.70;;;;;;;;;;5034520;28;20052;-63
2023/08/28 10:55:51;;;;;;;3.20;0.80;;;;;;;;;;5045259;28;20056;-62
2023/08/28 10:58:17;;;;;;;2.90;0.80;;;;;;;;;;5067348;28;20093;-62
2023/08/28 11:00:43;;;;;;;1.17;0.60;;;;;;;;;;5070124;28;20071;-62
2023/08/28 11:03:10;;;;;;;2.58;0.65;;;;;;;;;;5054382;28;20543;-63
2023/08/28 11:05:38;;;;;;;2.40;0.88;;;19.30;99.90;;;;;;5073939;28;20089;-62
2023/08/28 11:08:04;;;;;;;6.97;1.45;;;;;;;;;;5055729;28;20087;-63
2023/08/28 11:10:35;;;;;;;1.83;0.80;;;;;;;;;;5055783;28;20097;-62
2023/08/28 11:13:06;;;;;;;4.10;1.17;;;;;;;;;;5055042;28;20044;-62
2023/08/28 11:15:32;;;;;;;;;;;19.70;99.90;;;;;;5054731;28;20499;-62
2023/08/28 11:18:34;;;;;;;1.73;0.73;;;;;;;;;;5037082;28;19927;-62
2023/08/28 11:21:06;;;;;;;4.40;1.45;;;;;;;;;;4976610;28;20190;-62
2023/08/28 11:23:36;;;;;;;2.22;0.85;;;;;;;;;;4983564;28;20082;-62
2023/08/28 11:26:17;;;;;;;2.63;0.80;;;;;;;;;;4985677;28;20059;-63
2023/08/28 11:28:44;;;;;;;3.75;0.90;;;;;;;;;;4976111;28;20097;-63
2023/08/28 11:31:11;;;;;;;4.45;0.98;;;;;;;;;;4975302;28;20077;-63
2023/08/28 11:33:42;;;;;;;4.28;0.77;;;19.90;99.90;;;;;;4990665;28;20142;-63
2023/08/28 11:36:20;;;;;;;3.08;0.93;;;;;;;;;;4977070;28;20062;-62
2023/08/28 11:38:47;;;;;;;4.68;1.13;;;;;;;;;;4988868;28;20062;-63
2023/08/28 11:41:13;;;;;;;4.88;1.00;;;;;;;;;;4986600;28;20062;-70
2023/08/28 11:43:41;;;;;;;4.00;0.95;;;20.00;99.90;;;;;;4949128;28;20043;-67
2023/08/28 11:46:08;;;;;;;4.22;0.90;;;;;;;;;;4972965;28;20046;-66
2023/08/28 11:48:34;;;;;;;1.98;0.73;;;;;;;;;;4962131;28;20155;-67
2023/08/28 11:51:03;;;;;;;1.50;0.68;;;20.40;99.90;;;;;;4955973;28;20126;-67
2023/08/28 11:53:34;;;;;;;5.70;1.83;;;;;;;;;;4972281;28;20051;-65
2023/08/28 11:56:00;;;;;;;3.45;1.27;;;;;;;;;;5055345;28;20124;-66
2023/08/28 11:58:27;;;;;;;4.85;1.23;;;;;;;;;;5051288;28;20047;-66
2023/08/28 12:00:53;;;;;;;3.33;0.80;;;;;;;;;;5054196;28;20166;-66
2023/08/28 12:03:19;;;;;;;3.75;0.82;;;;;;;;;;5028242;28;20127;-66
2023/08/28 12:05:46;;;;;;;3.08;0.90;;;;;;;;;;5026966;28;20446;-66
2023/08/28 12:08:12;;;;;;;3.25;0.70;;;22.00;99.90;;;;;;5052791;28;20045;-66
2023/08/28 12:10:38;;;;;;;3.83;0.60;;;21.70;99.90;;;;;;5028372;28;20047;-66
2023/08/28 12:13:05;;;;;;;1.63;0.70;;;21.70;99.90;;;;;;5054710;28;20056;-66
2023/08/28 12:15:34;;;;;;;2.83;0.68;;;;;;;;;;5053804;28;20037;-66
2023/08/28 12:18:04;;;;;;;1.60;0.80;;;;;;;;;;5071173;28;20051;-66
2023/08/28 12:20:31;;;;;;;1.85;0.63;;;;;;;;;;5053697;28;20082;-66
2023/08/28 12:22:58;;;;;;;1.70;0.70;;;;;;;;;;5053682;28;20048;-66
2023/08/28 12:25:37;;;;;;;4.20;0.75;;;;;;;;;;5037534;28;20046;-64
2023/08/28 12:28:07;;;;;;;2.10;0.70;;;;;;;;;;5053321;28;20114;-67
2023/08/28 12:30:34;;;;;;;3.80;0.90;;;;;;;;;;5036567;28;20381;-67
2023/08/28 12:33:02;;;;;;;1.88;1.00;;;;;;;;;;5052971;28;20041;-66
2023/08/28 12:35:29;;;;;;;2.72;0.85;;;;;;;;;;5053376;28;20041;-66
2023/08/28 12:37:55;;;;;;;4.68;1.35;;;;;;;;;;5038123;28;20503;-66
2023/08/28 12:40:21;;;;;;;1.83;0.70;;;;;;;;;;5071847;28;20401;-66
2023/08/28 12:42:47;;;;;;;2.88;0.80;;;;;;;;;;5070379;28;20514;-66
2023/08/28 12:45:13;;;;;;;3.15;0.77;;;;;;;;;;5050602;28;20492;-61
2023/08/28 12:47:41;;;;;;;1.67;0.80;;;;;;;;;;5069376;28;20056;-61
2023/08/28 12:50:09;;;;;;;1.60;0.88;;;;;;;;;;5071700;28;20059;-60
2023/08/28 12:52:36;;;;;;;2.13;0.65;;;;;;;;;;5072332;28;20052;-61
2023/08/28 12:55:04;;;;;;;2.20;0.65;;;;;;;;;;5070658;28;20047;-63
2023/08/28 12:57:30;;;;;;;3.65;0.60;;;;;;;;;;5071721;28;20737;-61
2023/08/28 12:59:56;;;;;;;3.55;0.60;;;;;;;;;;5053496;28;20056;-61
2023/08/28 13:02:24;;;;;;;2.22;0.73;;;;;;;;;;5071347;28;20048;-61
2023/08/28 13:04:50;;;;;;;2.78;0.70;;;;;;;;;;5061357;28;20501;-60
2023/08/28 13:07:17;;;;;;;2.50;0.70;;;;;;;;;;5065300;28;20515;-61
2023/08/28 13:09:43;;;;;;;6.00;0.85;;;;;;;;;;5070045;28;20496;-61
2023/08/28 13:12:09;;;;;;;1.52;0.60;;;22.30;99.90;;;;;;5071490;28;20051;-61
2023/08/28 13:14:36;;;;;;;2.28;0.75;;;;;;;;;;5070369;28;20056;-61
2023/08/28 13:17:02;;;;;;;1.80;0.50;;;;;;;;;;5053556;28;20088;-60
2023/08/28 13:19:27;;;;;;;2.45;0.80;;;22.30;99.90;;;;;;5070716;28;20036;-58
2023/08/28 13:21:54;;;;;;;2.20;0.63;;;;;;;;;;5071653;28;20091;-61
2023/08/28 13:24:20;;;;;;;2.45;0.68;;;;;;;;;;5071143;28;20044;-61
2023/08/28 13:26:46;;;;;;;3.40;0.65;;;;;;;;;;5053885;28;20045;-61
2023/08/28 13:29:12;;;;;;;1.80;0.60;;;;;;;;;;5051883;28;21804;-63
2023/08/28 13:31:38;;;;;;;4.93;0.75;;;;;;;;;;5071284;28;20515;-64
2023/08/28 13:34:04;;;;;;;2.35;0.77;;;;;;;;;;5036900;28;20060;-63
2023/08/28 13:36:30;;;;;;;1.88;0.90;;;;;;;;;;5053660;28;20048;-63
2023/08/28 13:38:56;;;;;;;1.65;0.50;;;;;;;;;;5043327;28;20378;-63
2023/08/28 13:41:23;;;;;;;2.83;0.60;;;;;;;;;;5051011;28;21088;-59
2023/08/28 13:43:49;;;;;;;1.00;0.50;;;;;;;;;;5034345;28;20490;-61
2023/08/28 13:46:15;;;;;;;1.02;0.35;;;;;;;;;;5070625;28;20400;-61
2023/08/28 13:48:41;;;;;;;2.75;0.60;;;;;;;;;;5069820;28;20048;-60
2023/08/28 13:51:07;;;;;;;2.63;0.50;;;;;;;;;;5070028;28;20048;-61
2023/08/28 13:53:33;;;;;;;1.20;0.60;;;;;;;;;;5066052;28;20044;-61
2023/08/28 13:55:59;;;;;;;1.55;0.50;;;;;;;;;;5063984;28;20131;-60
2023/08/28 13:58:25;;;;;;;2.28;0.52;;;;;;;;;;5069362;28;20052;-60
2023/08/28 14:01:04;;;;;;;3.83;0.70;;;;;;;;;;5070964;28;20048;-60
2023/08/28 14:03:31;;;;;;;3.13;0.60;;;;;;;;;;5069882;28;20056;-60
2023/08/28 14:06:04;;;;;;;1.23;0.30;;;;;;;;;;5069794;28;20404;-60
2023/08/28 14:08:33;;;;;;;0.95;0.50;;;;;;;;;;5067409;28;20415;-61
2023/08/28 14:11:07;;;;;;;0.67;0.43;;;;;;;;;;5052838;28;20066;-60
2023/08/28 14:13:33;;;;;;;2.60;0.65;;;;;;;;;;5070035;28;20044;-60
2023/08/28 14:15:59;;;;;;;1.90;0.50;;;;;;;;;;5067520;28;20059;-60
2023/08/28 14:18:25;;;;;;;0.77;0.38;;;;;;;;;;5049714;28;20105;-61
2023/08/28 14:20:55;;;;;;;1.55;0.40;;;;;;;;;;5051990;28;20490;-60
2023/08/28 14:23:21;;;;;;;1.10;0.40;;;;;;;;;;5071506;28;20048;-60
2023/08/28 14:25:48;;;;;;;1.15;0.40;;;;;;;;;;5073276;28;20377;-61